<?xml version='1.0' encoding='UTF-8'?><gpx version="1.1" creator="JPX - https://github.com/jenetics/jpx" xmlns="http://www.topografix.com/GPX/1/1"><trk><trkseg><trkpt lat="37.47919882677904" lon="14.05172539078988"><ele>501.99999999999994</ele><time>2026-04-15T13:24:08.003Z</time></trkpt><trkpt lat="37.479267187159294" lon="14.05176435047136"><ele>502.0</ele><time>2026-04-15T13:24:14.003Z</time></trkpt><trkpt lat="37.47932178244678" lon="14.051820776281232"><ele>501.99999999999994</ele><time>2026-04-15T13:24:31.001Z</time></trkpt><trkpt lat="37.47939408035677" lon="14.051889726407628"><ele>501.99999999999994</ele><time>2026-04-15T13:24:42.001Z</time></trkpt><trkpt lat="37.47946212874753" lon="14.051929799079902"><ele>502.0</ele><time>2026-04-15T13:24:53.001Z</time></trkpt><trkpt lat="37.47952555130204" lon="14.051960167688476"><ele>501.99999999999994</ele><time>2026-04-15T13:25:08.001Z</time></trkpt><trkpt lat="37.479591992428986" lon="14.051984217134786"><ele>501.99999999999994</ele><time>2026-04-15T13:25:14.001Z</time></trkpt><trkpt lat="37.47966231882944" lon="14.05198334955892"><ele>501.99999999999994</ele><time>2026-04-15T13:25:19.001Z</time></trkpt><trkpt lat="37.4796876256658" lon="14.051907769116559"><ele>502.0</ele><time>2026-04-15T13:25:24.001Z</time></trkpt><trkpt lat="37.479716588247484" lon="14.051825253389097"><ele>501.99999999999994</ele><time>2026-04-15T13:25:29.002Z</time></trkpt><trkpt lat="37.479723255966846" lon="14.05174190570043"><ele>501.99999999999994</ele><time>2026-04-15T13:25:34.002Z</time></trkpt><trkpt lat="37.479655542435374" lon="14.051745985136622"><ele>502.0</ele><time>2026-04-15T13:25:44.002Z</time></trkpt><trkpt lat="37.47960751056047" lon="14.05181718551444"><ele>501.99999999999994</ele><time>2026-04-15T13:25:48.002Z</time></trkpt><trkpt lat="37.47954225487122" lon="14.051800820122878"><ele>501.99999999999994</ele><time>2026-04-15T13:25:53.002Z</time></trkpt><trkpt lat="37.47954280846667" lon="14.051702869247936"><ele>502.8571428571428</ele><time>2026-04-15T13:25:58.002Z</time></trkpt><trkpt lat="37.47957462820955" lon="14.051622655106629"><ele>503.71428571428567</ele><time>2026-04-15T13:26:01.002Z</time></trkpt><trkpt lat="37.479607675092154" lon="14.051553022912021"><ele>504.57142857142856</ele><time>2026-04-15T13:26:04.002Z</time></trkpt><trkpt lat="37.479684443498954" lon="14.051552428984607"><ele>505.4285714285714</ele><time>2026-04-15T13:26:11.003Z</time></trkpt><trkpt lat="37.47974972801492" lon="14.051557663815744"><ele>506.2857142857142</ele><time>2026-04-15T13:26:17.003Z</time></trkpt><trkpt lat="37.47981392517973" lon="14.051596806949126"><ele>507.14285714285717</ele><time>2026-04-15T13:26:22.003Z</time></trkpt><trkpt lat="37.47987089060524" lon="14.051642952654047"><ele>508.0</ele><time>2026-04-15T13:26:27.003Z</time></trkpt><trkpt lat="37.47992602379454" lon="14.051697069330162"><ele>508.0</ele><time>2026-04-15T13:26:31.002Z</time></trkpt><trkpt lat="37.48000560078725" lon="14.051699504605022"><ele>508.0</ele><time>2026-04-15T13:26:36.002Z</time></trkpt><trkpt lat="37.480076813472266" lon="14.05169356024176"><ele>508.0</ele><time>2026-04-15T13:26:41.002Z</time></trkpt><trkpt lat="37.48012101021837" lon="14.051626669685737"><ele>508.0</ele><time>2026-04-15T13:26:46.002Z</time></trkpt><trkpt lat="37.48006970392386" lon="14.051564936450996"><ele>508.0</ele><time>2026-04-15T13:26:51.001Z</time></trkpt><trkpt lat="37.48000672593437" lon="14.051545839489142"><ele>508.0</ele><time>2026-04-15T13:26:56.001Z</time></trkpt><trkpt lat="37.47993912203378" lon="14.051511414161373"><ele>508.0</ele><time>2026-04-15T13:27:02.001Z</time></trkpt><trkpt lat="37.47988483131416" lon="14.05146112739207"><ele>509.14285714285717</ele><time>2026-04-15T13:27:07.001Z</time></trkpt><trkpt lat="37.47985903712566" lon="14.051381963183616"><ele>510.2857142857142</ele><time>2026-04-15T13:27:12.001Z</time></trkpt><trkpt lat="37.47991976635921" lon="14.051355847501146"><ele>511.4285714285714</ele><time>2026-04-15T13:27:16.001Z</time></trkpt><trkpt lat="37.47997352276479" lon="14.05141847224208"><ele>512.5714285714286</ele><time>2026-04-15T13:27:21.001Z</time></trkpt><trkpt lat="37.48003342514339" lon="14.051471990753589"><ele>513.7142857142857</ele><time>2026-04-15T13:27:26.002Z</time></trkpt><trkpt lat="37.480097705368784" lon="14.051476053161592"><ele>514.8571428571428</ele><time>2026-04-15T13:27:32.002Z</time></trkpt><trkpt lat="37.48004923700183" lon="14.051407138375719"><ele>516.0</ele><time>2026-04-15T13:27:37.002Z</time></trkpt><trkpt lat="37.4799920869274" lon="14.051348309101332"><ele>515.9999999999999</ele><time>2026-04-15T13:27:42.002Z</time></trkpt><trkpt lat="37.47992802622843" lon="14.051311266992965"><ele>516.0</ele><time>2026-04-15T13:27:47.002Z</time></trkpt><trkpt lat="37.47985872744949" lon="14.051278239099297"><ele>516.0</ele><time>2026-04-15T13:27:52.002Z</time></trkpt><trkpt lat="37.47978744213102" lon="14.051250309974613"><ele>516.0</ele><time>2026-04-15T13:27:57.002Z</time></trkpt><trkpt lat="37.47972219975152" lon="14.051244876032767"><ele>516.0</ele><time>2026-04-15T13:28:01.002Z</time></trkpt><trkpt lat="37.47968454145306" lon="14.051326316635649"><ele>515.9999999999999</ele><time>2026-04-15T13:28:06.002Z</time></trkpt><trkpt lat="37.479726577641486" lon="14.051394971495027"><ele>516.0</ele><time>2026-04-15T13:28:10.002Z</time></trkpt><trkpt lat="37.47966100125554" lon="14.051361532635813"><ele>515.9999999999999</ele><time>2026-04-15T13:28:21.003Z</time></trkpt><trkpt lat="37.4796090319294" lon="14.051300365699017"><ele>516.0</ele><time>2026-04-15T13:28:26.003Z</time></trkpt><trkpt lat="37.47956522214568" lon="14.051228228007714"><ele>516.0</ele><time>2026-04-15T13:28:31.003Z</time></trkpt><trkpt lat="37.47952287657819" lon="14.051164974736315"><ele>516.0</ele><time>2026-04-15T13:28:36.003Z</time></trkpt><trkpt lat="37.479477888749926" lon="14.051103843073175"><ele>516.0</ele><time>2026-04-15T13:28:41.003Z</time></trkpt><trkpt lat="37.47942187032608" lon="14.051050706628914"><ele>515.9999999999999</ele><time>2026-04-15T13:28:46.003Z</time></trkpt><trkpt lat="37.47935248877093" lon="14.050997319690172"><ele>516.0</ele><time>2026-04-15T13:28:51.002Z</time></trkpt><trkpt lat="37.47929782429309" lon="14.050932762964335"><ele>515.5714285714286</ele><time>2026-04-15T13:28:57.002Z</time></trkpt><trkpt lat="37.47922474893601" lon="14.050915598596873"><ele>515.1428571428571</ele><time>2026-04-15T13:29:02.002Z</time></trkpt><trkpt lat="37.47916079777091" lon="14.050967751362235"><ele>514.7142857142858</ele><time>2026-04-15T13:29:08.002Z</time></trkpt><trkpt lat="37.479145583203504" lon="14.051045963747637"><ele>514.2857142857142</ele><time>2026-04-15T13:29:13.002Z</time></trkpt><trkpt lat="37.47919353129277" lon="14.051113037018462"><ele>513.8571428571429</ele><time>2026-04-15T13:29:18.002Z</time></trkpt><trkpt lat="37.47925509550192" lon="14.051138515461599"><ele>513.4285714285714</ele><time>2026-04-15T13:29:24.002Z</time></trkpt><trkpt lat="37.479328930135026" lon="14.051134217330654"><ele>513.0</ele><time>2026-04-15T13:29:31.002Z</time></trkpt><trkpt lat="37.479393039749006" lon="14.051156594409946"><ele>513.0000000000001</ele><time>2026-04-15T13:29:37.002Z</time></trkpt><trkpt lat="37.479451353278" lon="14.051213396274932"><ele>513.0</ele><time>2026-04-15T13:29:43.002Z</time></trkpt><trkpt lat="37.47949502938014" lon="14.051272902835853"><ele>513.0</ele><time>2026-04-15T13:29:48.002Z</time></trkpt><trkpt lat="37.47954639226583" lon="14.05133101960427"><ele>513.0</ele><time>2026-04-15T13:29:54.002Z</time></trkpt><trkpt lat="37.479501974253616" lon="14.051387951474183"><ele>513.0</ele><time>2026-04-15T13:30:04.002Z</time></trkpt><trkpt lat="37.4794646192925" lon="14.05129281590833"><ele>513.0000000000001</ele><time>2026-04-15T13:30:10.002Z</time></trkpt><trkpt lat="37.47939655106773" lon="14.051247051898066"><ele>513.0</ele><time>2026-04-15T13:30:16.002Z</time></trkpt><trkpt lat="37.479328604568934" lon="14.051226134157375"><ele>513.0000000000001</ele><time>2026-04-15T13:30:22.002Z</time></trkpt><trkpt lat="37.47925855838054" lon="14.05121549542287"><ele>513.0</ele><time>2026-04-15T13:30:27.002Z</time></trkpt><trkpt lat="37.47919951774731" lon="14.051180938307304"><ele>513.0</ele><time>2026-04-15T13:30:32.002Z</time></trkpt><trkpt lat="37.47913294931" lon="14.051134584245322"><ele>513.0</ele><time>2026-04-15T13:30:38.002Z</time></trkpt><trkpt lat="37.47909688325411" lon="14.051056764267651"><ele>513.0</ele><time>2026-04-15T13:30:44.003Z</time></trkpt><trkpt lat="37.479042024541336" lon="14.050989554106149"><ele>513.0000000000001</ele><time>2026-04-15T13:30:50.003Z</time></trkpt><trkpt lat="37.478992483926454" lon="14.050934857812654"><ele>513.0</ele><time>2026-04-15T13:30:55.002Z</time></trkpt><trkpt lat="37.478965379918385" lon="14.05086319482244"><ele>513.0000000000001</ele><time>2026-04-15T13:31:00.002Z</time></trkpt><trkpt lat="37.47891730815737" lon="14.050799611671524"><ele>513.0</ele><time>2026-04-15T13:31:06.002Z</time></trkpt><trkpt lat="37.47884813172037" lon="14.050760196913485"><ele>513.0</ele><time>2026-04-15T13:31:15.002Z</time></trkpt><trkpt lat="37.478780577696064" lon="14.050744771247109"><ele>513.0</ele><time>2026-04-15T13:31:21.001Z</time></trkpt><trkpt lat="37.47871220977744" lon="14.05071392156821"><ele>513.0</ele><time>2026-04-15T13:31:27.001Z</time></trkpt><trkpt lat="37.47865249034833" lon="14.05076349877153"><ele>513.0000000000001</ele><time>2026-04-15T13:31:32.001Z</time></trkpt><trkpt lat="37.47867406342615" lon="14.050865706908636"><ele>513.0</ele><time>2026-04-15T13:31:38.001Z</time></trkpt><trkpt lat="37.4787235044218" lon="14.050929126483595"><ele>513.0000000000001</ele><time>2026-04-15T13:31:43.001Z</time></trkpt><trkpt lat="37.47877807011143" lon="14.050975408761477"><ele>513.0</ele><time>2026-04-15T13:31:48.001Z</time></trkpt><trkpt lat="37.47883346100773" lon="14.051028182614486"><ele>513.0</ele><time>2026-04-15T13:31:56.001Z</time></trkpt><trkpt lat="37.47890427999536" lon="14.05106494390037"><ele>513.0</ele><time>2026-04-15T13:32:21.001Z</time></trkpt><trkpt lat="37.47897789146562" lon="14.051133911519614"><ele>513.0</ele><time>2026-04-15T13:32:24.001Z</time></trkpt><trkpt lat="37.47903780839647" lon="14.051178711595629"><ele>513.0000000000001</ele><time>2026-04-15T13:32:32.001Z</time></trkpt><trkpt lat="37.47909524980699" lon="14.0512394016174"><ele>513.0</ele><time>2026-04-15T13:32:39.001Z</time></trkpt><trkpt lat="37.47915821226944" lon="14.051270117449683"><ele>513.0000000000001</ele><time>2026-04-15T13:32:53.002Z</time></trkpt><trkpt lat="37.47921676822598" lon="14.051304326480485"><ele>513.0</ele><time>2026-04-15T13:33:01.001Z</time></trkpt><trkpt lat="37.47928075919676" lon="14.051349093776764"><ele>513.0</ele><time>2026-04-15T13:33:10.001Z</time></trkpt><trkpt lat="37.4793462167842" lon="14.051375667205441"><ele>513.0</ele><time>2026-04-15T13:33:15.001Z</time></trkpt><trkpt lat="37.47941104856729" lon="14.05142386265918"><ele>513.0</ele><time>2026-04-15T13:33:21.001Z</time></trkpt><trkpt lat="37.47947903231072" lon="14.051451100749365"><ele>513.0000000000001</ele><time>2026-04-15T13:33:26.001Z</time></trkpt><trkpt lat="37.4794948489582" lon="14.051528866997963"><ele>513.0</ele><time>2026-04-15T13:33:30.001Z</time></trkpt><trkpt lat="37.47949341410986" lon="14.051618524474335"><ele>513.0000000000001</ele><time>2026-04-15T13:33:35.001Z</time></trkpt><trkpt lat="37.47946259364236" lon="14.051705986043265"><ele>513.0</ele><time>2026-04-15T13:33:40.001Z</time></trkpt><trkpt lat="37.47939978617908" lon="14.0516907951201"><ele>513.0</ele><time>2026-04-15T13:33:45.001Z</time></trkpt><trkpt lat="37.47936588120659" lon="14.051616285786391"><ele>513.0</ele><time>2026-04-15T13:33:50.001Z</time></trkpt><trkpt lat="37.479340216070796" lon="14.051528270441207"><ele>513.0</ele><time>2026-04-15T13:33:56.001Z</time></trkpt><trkpt lat="37.47931090624163" lon="14.051455161976723"><ele>513.0000000000001</ele><time>2026-04-15T13:34:01.001Z</time></trkpt><trkpt lat="37.47925750342098" lon="14.051403714396868"><ele>513.0</ele><time>2026-04-15T13:34:07.001Z</time></trkpt><trkpt lat="37.47919796196265" lon="14.05135993545621"><ele>513.0000000000001</ele><time>2026-04-15T13:34:13.001Z</time></trkpt><trkpt lat="37.479144006463855" lon="14.051318567183607"><ele>513.0</ele><time>2026-04-15T13:34:18.001Z</time></trkpt><trkpt lat="37.4790692053782" lon="14.051269382519923"><ele>513.0</ele><time>2026-04-15T13:34:23.001Z</time></trkpt><trkpt lat="37.47900993467845" lon="14.051237922142453"><ele>513.0</ele><time>2026-04-15T13:34:28.001Z</time></trkpt><trkpt lat="37.4789421601533" lon="14.051216053901719"><ele>513.0</ele><time>2026-04-15T13:34:33.001Z</time></trkpt><trkpt lat="37.478876021116164" lon="14.05117145942465"><ele>513.0000000000001</ele><time>2026-04-15T13:34:38.001Z</time></trkpt><trkpt lat="37.47882257924742" lon="14.051123940735607"><ele>513.0</ele><time>2026-04-15T13:34:44.001Z</time></trkpt><trkpt lat="37.47877758504074" lon="14.051061938959819"><ele>513.0000000000001</ele><time>2026-04-15T13:34:55.001Z</time></trkpt><trkpt lat="37.47870672057165" lon="14.051027540853045"><ele>513.0</ele><time>2026-04-15T13:35:00.001Z</time></trkpt><trkpt lat="37.478643809425755" lon="14.05100219416872"><ele>513.0</ele><time>2026-04-15T13:35:05.001Z</time></trkpt><trkpt lat="37.47857228974934" lon="14.050986492090047"><ele>513.0</ele><time>2026-04-15T13:35:12.001Z</time></trkpt><trkpt lat="37.47860229099029" lon="14.05105771512614"><ele>513.0</ele><time>2026-04-15T13:35:19.001Z</time></trkpt><trkpt lat="37.478671299997366" lon="14.051087554601414"><ele>513.0000000000001</ele><time>2026-04-15T13:35:25.001Z</time></trkpt><trkpt lat="37.478729685793816" lon="14.051130009129338"><ele>513.0</ele><time>2026-04-15T13:35:30.001Z</time></trkpt><trkpt lat="37.478795537370154" lon="14.051174800608653"><ele>513.0000000000001</ele><time>2026-04-15T13:35:36Z</time></trkpt><trkpt lat="37.47884927786914" lon="14.051216171478785"><ele>513.0</ele><time>2026-04-15T13:35:42Z</time></trkpt><trkpt lat="37.47879077183426" lon="14.051250438380404"><ele>513.0</ele><time>2026-04-15T13:35:51Z</time></trkpt><trkpt lat="37.47871413267353" lon="14.05122049257067"><ele>513.0</ele><time>2026-04-15T13:35:58Z</time></trkpt><trkpt lat="37.478657588263786" lon="14.051176019901169"><ele>513.0</ele><time>2026-04-15T13:36:12Z</time></trkpt><trkpt lat="37.47858758239039" lon="14.051152777118743"><ele>513.0000000000001</ele><time>2026-04-15T13:36:18Z</time></trkpt><trkpt lat="37.4785249789848" lon="14.051127606356234"><ele>513.0</ele><time>2026-04-15T13:36:24Z</time></trkpt><trkpt lat="37.47846116740797" lon="14.05116307973061"><ele>513.0000000000001</ele><time>2026-04-15T13:36:40Z</time></trkpt><trkpt lat="37.47852749690365" lon="14.051180945378857"><ele>513.0</ele><time>2026-04-15T13:36:46Z</time></trkpt><trkpt lat="37.478585699975504" lon="14.051225109519867"><ele>513.0</ele><time>2026-04-15T13:36:54Z</time></trkpt><trkpt lat="37.47866406319142" lon="14.05123997869012"><ele>513.0</ele><time>2026-04-15T13:37:00Z</time></trkpt><trkpt lat="37.47872250817969" lon="14.05128872832111"><ele>513.0</ele><time>2026-04-15T13:37:08.001Z</time></trkpt><trkpt lat="37.47878325918012" lon="14.051328837527725"><ele>513.0000000000001</ele><time>2026-04-15T13:37:14.001Z</time></trkpt><trkpt lat="37.47879480757508" lon="14.051423994981407"><ele>513.0</ele><time>2026-04-15T13:37:43Z</time></trkpt><trkpt lat="37.478729402478876" lon="14.05138217454972"><ele>511.7142857142858</ele><time>2026-04-15T13:37:49Z</time></trkpt><trkpt lat="37.47866816894861" lon="14.051344444642648"><ele>510.42857142857144</ele><time>2026-04-15T13:38:10Z</time></trkpt><trkpt lat="37.47861118049174" lon="14.051308086905243"><ele>509.14285714285717</ele><time>2026-04-15T13:38:22Z</time></trkpt><trkpt lat="37.4785510792489" lon="14.051267655747703"><ele>507.8571428571429</ele><time>2026-04-15T13:38:26Z</time></trkpt><trkpt lat="37.478488915475666" lon="14.0512177422166"><ele>506.57142857142856</ele><time>2026-04-15T13:38:33Z</time></trkpt><trkpt lat="37.47842555499759" lon="14.05119513683487"><ele>505.2857142857143</ele><time>2026-04-15T13:38:39Z</time></trkpt><trkpt lat="37.47839546492061" lon="14.051269873264282"><ele>504.0</ele><time>2026-04-15T13:38:47Z</time></trkpt><trkpt lat="37.478453023787054" lon="14.051317474200431"><ele>504.0</ele><time>2026-04-15T13:38:54Z</time></trkpt><trkpt lat="37.47849558458078" lon="14.051380189105176"><ele>504.0</ele><time>2026-04-15T13:38:59Z</time></trkpt><trkpt lat="37.47855818871479" lon="14.051396576818947"><ele>504.0</ele><time>2026-04-15T13:39:04Z</time></trkpt><trkpt lat="37.478629000483" lon="14.051435801380963"><ele>504.0</ele><time>2026-04-15T13:39:34Z</time></trkpt><trkpt lat="37.478689748683095" lon="14.051473277006101"><ele>504.0</ele><time>2026-04-15T13:39:54Z</time></trkpt><trkpt lat="37.478745582228285" lon="14.051512223229317"><ele>504.0</ele><time>2026-04-15T13:40:03Z</time></trkpt><trkpt lat="37.47880936710707" lon="14.05156516327232"><ele>504.0</ele><time>2026-04-15T13:40:44.999Z</time></trkpt><trkpt lat="37.4788535175418" lon="14.0514998819327"><ele>505.2857142857143</ele><time>2026-04-15T13:41:09.999Z</time></trkpt><trkpt lat="37.47889601245121" lon="14.051427590315337"><ele>506.57142857142856</ele><time>2026-04-15T13:41:20Z</time></trkpt><trkpt lat="37.47892646948004" lon="14.051325631675843"><ele>507.8571428571429</ele><time>2026-04-15T13:41:37Z</time></trkpt><trkpt lat="37.47899582227782" lon="14.051309220634792"><ele>509.14285714285717</ele><time>2026-04-15T13:41:47Z</time></trkpt><trkpt lat="37.47905611744451" lon="14.051334171939727"><ele>510.42857142857144</ele><time>2026-04-15T13:41:54Z</time></trkpt><trkpt lat="37.47911324391021" lon="14.051378620596658"><ele>511.7142857142858</ele><time>2026-04-15T13:42:04Z</time></trkpt><trkpt lat="37.47917751652676" lon="14.051403668940198"><ele>513.0</ele><time>2026-04-15T13:42:11Z</time></trkpt><trkpt lat="37.479234401494864" lon="14.051455855539132"><ele>513.0</ele><time>2026-04-15T13:42:17Z</time></trkpt><trkpt lat="37.47928100106467" lon="14.051523958971694"><ele>513.0</ele><time>2026-04-15T13:42:24.999Z</time></trkpt><trkpt lat="37.47928276260744" lon="14.051607410031961"><ele>513.0</ele><time>2026-04-15T13:42:31.999Z</time></trkpt><trkpt lat="37.47920611223686" lon="14.051609107282594"><ele>513.0</ele><time>2026-04-15T13:42:38.999Z</time></trkpt><trkpt lat="37.47914236793312" lon="14.051592068524785"><ele>513.0</ele><time>2026-04-15T13:42:50.999Z</time></trkpt></trkseg></trk></gpx>